createdAt,value
2018-05-16T00:01:32.791Z,77.40
2018-05-16T00:04:05.822Z,78.50
2018-05-16T00:06:38.206Z,78.40
2018-05-16T00:09:10.577Z,78.80
2018-05-16T00:11:42.964Z,78.70
2018-05-16T00:14:15.317Z,78.80
2018-05-16T00:16:47.735Z,79.10
2018-05-16T00:19:20.038Z,79.40
2018-05-16T00:21:52.346Z,79.90
2018-05-16T00:24:24.729Z,80.00
2018-05-16T00:26:57.156Z,80.70
2018-05-16T00:29:29.565Z,81.10
2018-05-16T00:32:01.893Z,80.10
2018-05-16T00:34:34.888Z,80.40
2018-05-16T00:37:07.226Z,80.30
2018-05-16T00:39:39.481Z,79.80
2018-05-16T00:42:11.876Z,80.00
2018-05-16T00:44:44.211Z,80.10
2018-05-16T00:47:16.479Z,79.60
2018-05-16T00:49:48.827Z,80.40
2018-05-16T00:52:21.175Z,80.10
2018-05-16T00:54:54.238Z,81.20
2018-05-16T00:57:26.540Z,81.10
2018-05-16T00:59:58.836Z,81.30
2018-05-16T01:02:31.225Z,81.80
2018-05-16T01:05:03.625Z,82.10
2018-05-16T01:07:36.015Z,83.00
2018-05-16T01:10:08.306Z,83.20
2018-05-16T01:12:41.482Z,83.50
2018-05-16T01:15:13.851Z,83.50
2018-05-16T01:17:46.981Z,84.70
2018-05-16T01:20:20.041Z,85.00
2018-05-16T01:22:53.266Z,84.80
2018-05-16T01:25:25.582Z,84.70
2018-05-16T01:27:57.994Z,85.60
2018-05-16T01:30:30.292Z,85.70
2018-05-16T01:33:02.650Z,85.90
2018-05-16T01:35:34.891Z,86.20
2018-05-16T01:38:07.302Z,85.70
2018-05-16T01:40:39.583Z,86.10
2018-05-16T01:43:12.049Z,86.80
2018-05-16T01:45:44.425Z,86.90
2018-05-16T01:48:17.597Z,86.00
2018-05-16T01:50:49.940Z,86.00
2018-05-16T01:53:22.281Z,85.60
2018-05-16T01:55:55.170Z,85.70
2018-05-16T01:58:27.513Z,84.80
2018-05-16T02:00:59.790Z,85.50
2018-05-16T02:03:32.112Z,85.60
2018-05-16T02:06:05.194Z,85.90
2018-05-16T02:08:37.489Z,85.80
2018-05-16T02:11:10.798Z,86.00
2018-05-16T02:13:43.060Z,86.00
2018-05-16T02:16:15.334Z,86.60
2018-05-16T02:18:47.917Z,86.90
2018-05-16T02:21:20.271Z,86.90
2018-05-16T02:23:52.606Z,87.60
2018-05-16T02:26:24.960Z,86.70
2018-05-16T02:28:57.308Z,85.30
2018-05-16T02:31:29.647Z,85.00
2018-05-16T02:34:01.898Z,84.80
2018-05-16T02:36:34.280Z,85.20
2018-05-16T02:39:06.631Z,84.80
2018-05-16T02:41:39.010Z,85.50
2018-05-16T02:44:11.403Z,85.10
2018-05-16T02:46:44.544Z,84.40
2018-05-16T02:49:16.926Z,84.40
2018-05-16T02:51:49.213Z,84.70
2018-05-16T02:54:21.749Z,84.60
2018-05-16T02:56:53.931Z,84.80
2018-05-16T02:59:26.391Z,85.20
2018-05-16T03:01:58.664Z,84.80
2018-05-16T03:04:31.054Z,85.40
2018-05-16T03:07:03.418Z,85.60
2018-05-16T03:09:35.866Z,86.70
2018-05-16T03:12:08.144Z,86.10
2018-05-16T03:14:40.546Z,86.10
2018-05-16T03:17:12.830Z,86.60
2018-05-16T03:19:45.235Z,86.70
2018-05-16T03:22:18.339Z,87.40
2018-05-16T03:24:51.424Z,87.30
2018-05-16T03:27:24.463Z,87.30
2018-05-16T03:29:56.773Z,87.30
2018-05-16T03:32:29.048Z,87.40
2018-05-16T03:35:01.398Z,87.40
2018-05-16T03:37:33.730Z,87.10
2018-05-16T03:40:06.136Z,87.30
2018-05-16T03:42:38.503Z,86.60
2018-05-16T03:45:10.823Z,86.20
2018-05-16T03:47:43.198Z,87.00
2018-05-16T03:50:15.551Z,86.70
2018-05-16T03:52:47.799Z,88.70
2018-05-16T03:55:20.302Z,90.00
2018-05-16T03:58:20.609Z,90.20
2018-05-16T04:01:16.128Z,90.20
2018-05-16T04:04:00.755Z,90.00
2018-05-16T04:06:32.979Z,90.40
2018-05-16T04:09:05.985Z,90.30
2018-05-16T04:11:38.336Z,90.30
2018-05-16T04:14:11.326Z,90.30
2018-05-16T04:16:51.441Z,90.50
2018-05-16T04:19:23.725Z,90.50
2018-05-16T04:21:56.211Z,89.30
2018-05-16T04:24:29.279Z,90.80
2018-05-16T04:27:01.566Z,90.80
2018-05-16T04:29:33.814Z,89.30
2018-05-16T04:32:06.259Z,89.60
2018-05-16T04:34:38.832Z,89.30
2018-05-16T04:37:11.290Z,88.50
2018-05-16T04:39:43.655Z,89.30
2018-05-16T04:42:16.627Z,89.10
2018-05-16T04:44:48.876Z,89.10
2018-05-16T04:47:21.183Z,88.80
2018-05-16T04:49:54.243Z,88.10
2018-05-16T04:52:26.701Z,88.00
2018-05-16T04:54:59.037Z,87.20
2018-05-16T04:57:31.513Z,89.10
2018-05-16T05:00:03.786Z,87.80
2018-05-16T05:02:36.161Z,89.60
2018-05-16T05:05:08.513Z,87.40
2018-05-16T05:07:41.630Z,86.90
2018-05-16T05:10:13.962Z,86.90
2018-05-16T05:12:46.266Z,87.60
2018-05-16T05:15:18.557Z,87.10
2018-05-16T05:17:50.836Z,89.00
2018-05-16T05:20:23.151Z,89.30
2018-05-16T05:22:56.201Z,88.30
2018-05-16T05:25:28.573Z,88.20
2018-05-16T05:28:01.089Z,89.40
2018-05-16T05:30:34.322Z,89.50
2018-05-16T05:33:06.711Z,89.50
2018-05-16T05:35:39.089Z,88.90
2018-05-16T05:38:12.676Z,90.10
2018-05-16T05:40:45.020Z,90.10
2018-05-16T05:43:17.542Z,88.20
2018-05-16T05:45:49.807Z,88.70
2018-05-16T05:48:22.204Z,89.90
2018-05-16T05:50:54.497Z,90.30
2018-05-16T05:53:27.617Z,89.20
2018-05-16T05:55:59.978Z,89.10
2018-05-16T05:58:32.366Z,89.50
2018-05-16T06:01:04.701Z,90.30
2018-05-16T06:03:37.910Z,88.00
2018-05-16T06:06:10.225Z,88.00
2018-05-16T06:08:42.509Z,87.10
2018-05-16T06:11:14.819Z,87.20
2018-05-16T06:13:47.981Z,88.70
2018-05-16T06:16:20.335Z,88.70
2018-05-16T06:18:52.818Z,88.50
2018-05-16T06:21:25.177Z,89.40
2018-05-16T06:23:57.467Z,88.40
2018-05-16T06:26:29.829Z,86.90
2018-05-16T06:29:02.095Z,85.90
2018-05-16T06:31:34.321Z,86.40
2018-05-16T06:34:06.604Z,87.00
2018-05-16T06:36:39.014Z,88.30
2018-05-16T06:39:11.534Z,87.60
2018-05-16T06:41:43.858Z,87.60
2018-05-16T06:44:16.218Z,85.20
2018-05-16T06:46:48.601Z,86.00
2018-05-16T06:49:20.997Z,87.10
2018-05-16T06:51:53.440Z,87.50
2018-05-16T06:54:25.948Z,86.70
2018-05-16T06:56:58.322Z,85.80
2018-05-16T06:59:31.527Z,85.10
2018-05-16T07:02:04.687Z,87.50
2018-05-16T07:04:37.101Z,87.40
2018-05-16T07:07:10.236Z,86.20
2018-05-16T07:09:42.646Z,86.10
2018-05-16T07:12:14.985Z,85.60
2018-05-16T07:14:47.290Z,85.00
2018-05-16T07:17:19.555Z,84.10
2018-05-16T07:19:52.699Z,80.70
2018-05-16T07:22:24.971Z,80.60
2018-05-16T07:24:57.336Z,82.20
2018-05-16T07:27:29.791Z,81.00
2018-05-16T07:30:02.871Z,83.20
2018-05-16T07:32:35.271Z,83.00
2018-05-16T07:35:07.617Z,82.10
2018-05-16T07:37:40.742Z,82.50
2018-05-16T07:40:13.163Z,82.60
2018-05-16T07:42:45.492Z,82.60
2018-05-16T07:45:18.036Z,82.00
2018-05-16T07:47:50.346Z,81.40
2018-05-16T07:50:22.702Z,79.70
2018-05-16T07:52:55.049Z,79.70
2018-05-16T07:55:28.211Z,81.00
2018-05-16T07:58:00.546Z,81.00
2018-05-16T08:00:32.980Z,80.80
2018-05-16T08:03:06.042Z,78.10
2018-05-16T08:05:38.437Z,78.00
2018-05-16T08:08:11.590Z,73.60
2018-05-16T08:10:43.954Z,73.50
2018-05-16T08:13:16.340Z,73.60
2018-05-16T08:15:48.665Z,74.00
2018-05-16T08:18:21.714Z,67.30
2018-05-16T08:20:54.031Z,67.20
2018-05-16T08:23:26.435Z,65.30
2018-05-16T08:25:58.865Z,61.40
2018-05-16T08:28:31.173Z,56.40
2018-05-16T08:31:03.835Z,53.60
2018-05-16T08:33:36.155Z,51.90
2018-05-16T08:36:08.823Z,51.20
2018-05-16T08:38:41.139Z,50.10
2018-05-16T08:41:13.616Z,49.00
2018-05-16T08:43:46.775Z,49.40
2018-05-16T08:46:19.142Z,49.40
2018-05-16T08:48:51.502Z,51.10
2018-05-16T08:51:23.846Z,48.40
2018-05-16T08:53:56.215Z,50.10
2018-05-16T08:56:28.562Z,52.90
2018-05-16T08:59:00.817Z,50.20
2018-05-16T09:01:33.900Z,51.50
2018-05-16T09:04:06.244Z,51.50
2018-05-16T09:06:38.590Z,52.70
2018-05-16T09:09:10.983Z,51.40
2018-05-16T09:11:43.318Z,51.50
2018-05-16T09:14:15.747Z,50.00
2018-05-16T09:16:48.189Z,50.80
2018-05-16T09:19:20.475Z,48.70
2018-05-16T09:21:53.060Z,49.60
2018-05-16T09:24:25.428Z,49.80
2018-05-16T09:26:57.726Z,50.60
2018-05-16T09:29:30.082Z,49.80
2018-05-16T09:32:02.681Z,50.00
2018-05-16T09:34:34.974Z,49.70
2018-05-16T09:37:08.114Z,49.00
2018-05-16T09:39:40.513Z,48.50
2018-05-16T09:42:12.877Z,48.00
2018-05-16T09:44:45.296Z,48.00
2018-05-16T09:47:17.821Z,47.30
2018-05-16T09:49:50.127Z,46.80
2018-05-16T09:52:23.419Z,49.70
2018-05-16T09:54:56.518Z,52.90
2018-05-16T09:57:29.764Z,53.10
2018-05-16T10:00:02.025Z,53.10
2018-05-16T10:02:34.440Z,55.20
2018-05-16T10:05:07.335Z,55.00
2018-05-16T10:07:40.341Z,56.70
2018-05-16T10:10:12.654Z,56.70
2018-05-16T10:12:44.967Z,56.60
2018-05-16T10:15:17.923Z,56.90
2018-05-16T10:17:50.596Z,56.90
2018-05-16T10:20:22.926Z,58.60
2018-05-16T10:22:55.263Z,60.10
2018-05-16T10:25:27.577Z,59.90
2018-05-16T10:27:59.945Z,64.10
2018-05-16T10:30:32.271Z,64.10
2018-05-16T10:33:05.458Z,67.60
2018-05-16T10:35:37.740Z,67.60
2018-05-16T10:38:10.939Z,69.10
2018-05-16T10:40:44.101Z,68.90
2018-05-16T10:43:16.445Z,68.90
2018-05-16T10:45:48.708Z,68.40
2018-05-16T10:48:21.073Z,68.60
2018-05-16T10:50:53.520Z,66.80
2018-05-16T10:53:26.660Z,68.50
2018-05-16T10:55:58.991Z,68.50
2018-05-16T10:58:31.446Z,68.20
2018-05-16T11:01:03.782Z,68.50
2018-05-16T11:03:36.128Z,67.90
2018-05-16T11:06:08.452Z,68.90
2018-05-16T11:08:41.025Z,68.20
2018-05-16T11:11:14.286Z,69.40
2018-05-16T11:13:46.589Z,67.80
2018-05-16T11:16:18.851Z,67.10
2018-05-16T11:18:51.144Z,66.20
2018-05-16T11:21:23.467Z,66.90
2018-05-16T11:23:55.814Z,66.00
2018-05-16T11:26:29.360Z,65.80
2018-05-16T11:29:01.448Z,65.70
2018-05-16T11:31:33.933Z,67.10
2018-05-16T11:34:06.218Z,67.90
2018-05-16T11:36:39.307Z,69.80
2018-05-16T11:39:11.660Z,69.70
2018-05-16T11:41:43.979Z,70.70
2018-05-16T11:44:16.439Z,71.80
2018-05-16T11:46:48.711Z,72.40
2018-05-16T11:49:21.037Z,71.70
2018-05-16T11:51:53.311Z,72.90
2018-05-16T11:54:25.689Z,75.10
2018-05-16T11:56:58.060Z,71.90
2018-05-16T11:59:30.445Z,72.90
2018-05-16T12:02:02.743Z,71.50
2018-05-16T12:04:35.060Z,70.60
2018-05-16T12:07:07.340Z,71.10
2018-05-16T12:09:39.902Z,71.70
2018-05-16T12:12:12.293Z,71.30
2018-05-16T12:14:44.672Z,71.70
2018-05-16T12:17:16.907Z,72.00
2018-05-16T12:19:49.208Z,73.60
2018-05-16T12:22:21.500Z,73.00
2018-05-16T12:24:54.572Z,73.80
2018-05-16T12:27:26.854Z,73.80
2018-05-16T12:29:59.228Z,73.50
2018-05-16T12:32:31.653Z,73.90
2018-05-16T12:35:04.045Z,75.40
2018-05-16T12:37:36.324Z,76.20
2018-05-16T12:40:08.670Z,76.10
2018-05-16T12:42:40.953Z,75.80
2018-05-16T12:45:13.366Z,76.10
2018-05-16T12:47:46.532Z,78.20
2018-05-16T12:50:18.913Z,78.10
2018-05-16T12:52:51.262Z,76.20
2018-05-16T12:55:23.557Z,74.20
2018-05-16T12:57:55.836Z,74.00
2018-05-16T13:00:28.205Z,74.40
2018-05-16T13:03:00.757Z,75.00
2018-05-16T13:05:33.073Z,75.70
2018-05-16T13:08:06.084Z,76.20
2018-05-16T13:10:38.369Z,76.10
2018-05-16T13:13:10.751Z,77.70
2018-05-16T13:15:43.121Z,77.60
2018-05-16T13:18:15.469Z,77.10
2018-05-16T13:20:47.909Z,77.20
2018-05-16T13:23:20.193Z,77.20
2018-05-16T13:25:53.389Z,75.50
2018-05-16T13:28:26.409Z,76.60
2018-05-16T13:30:58.959Z,76.60
2018-05-16T13:33:32.038Z,76.40
2018-05-16T13:36:05.205Z,76.50
2018-05-16T13:38:37.549Z,76.50
2018-05-16T13:41:10.149Z,77.80
2018-05-16T13:43:42.520Z,76.30
2018-05-16T13:46:14.980Z,76.70
2018-05-16T13:48:47.404Z,74.70
2018-05-16T13:51:20.525Z,74.50
2018-05-16T13:53:52.856Z,74.40
2018-05-16T13:56:26.005Z,73.70
2018-05-16T13:58:58.351Z,73.60
2018-05-16T14:01:30.683Z,73.50
2018-05-16T14:04:03.078Z,74.80
2018-05-16T14:06:35.712Z,74.80
2018-05-16T14:09:07.997Z,74.10
2018-05-16T14:11:40.483Z,70.70
2018-05-16T14:14:13.520Z,72.30
2018-05-16T14:16:46.153Z,72.20
2018-05-16T14:19:18.481Z,72.00
2018-05-16T14:21:50.802Z,74.10
2018-05-16T14:24:23.166Z,73.80
2018-05-16T14:26:55.584Z,74.50
2018-05-16T14:29:27.845Z,73.70
2018-05-16T14:32:00.915Z,74.10
2018-05-16T14:34:33.605Z,73.70
2018-05-16T14:37:06.071Z,73.80
2018-05-16T14:39:39.129Z,74.90
2018-05-16T14:42:11.517Z,74.90
2018-05-16T14:44:43.766Z,75.10
2018-05-16T14:47:16.141Z,74.80
2018-05-16T14:49:48.505Z,72.40
2018-05-16T14:52:20.980Z,73.30
2018-05-16T14:54:53.232Z,74.10
2018-05-16T14:57:25.575Z,73.60
2018-05-16T14:59:57.957Z,72.80
2018-05-16T15:02:30.316Z,74.80
2018-05-16T15:05:02.629Z,76.40
2018-05-16T15:07:34.976Z,77.10
2018-05-16T15:10:07.230Z,77.90
2018-05-16T15:12:39.616Z,77.80
2018-05-16T15:15:12.168Z,77.90
2018-05-16T15:17:44.472Z,78.60
2018-05-16T15:20:16.864Z,78.70
2018-05-16T15:22:49.254Z,78.80
2018-05-16T15:25:21.558Z,78.30
2018-05-16T15:27:54.725Z,76.40
2018-05-16T15:30:27.105Z,76.40
2018-05-16T15:33:00.237Z,77.70
2018-05-16T15:35:32.573Z,77.70
2018-05-16T15:38:05.675Z,76.50
2018-05-16T15:40:38.821Z,76.10
2018-05-16T15:43:11.162Z,76.10
2018-05-16T15:45:43.659Z,76.90
2018-05-16T15:48:15.957Z,77.10
2018-05-16T15:50:48.297Z,77.90
2018-05-16T15:53:20.608Z,78.90
2018-05-16T15:55:52.910Z,79.10
2018-05-16T15:58:25.268Z,78.90
2018-05-16T16:00:57.571Z,78.50
2018-05-16T16:03:30.130Z,79.10
2018-05-16T16:06:02.689Z,77.80
2018-05-16T16:08:35.804Z,76.60
2018-05-16T16:11:08.115Z,76.50
2018-05-16T16:13:40.685Z,77.60
2018-05-16T16:16:13.157Z,77.10
2018-05-16T16:18:45.497Z,77.50
2018-05-16T16:21:17.902Z,78.80
2018-05-16T16:23:50.441Z,78.90
2018-05-16T16:26:22.766Z,79.60
2018-05-16T16:28:55.025Z,78.70
2018-05-16T16:31:27.460Z,78.40
2018-05-16T16:33:59.931Z,78.70
2018-05-16T16:36:32.210Z,79.90
2018-05-16T16:39:04.726Z,80.40
2018-05-16T16:41:37.067Z,80.30
2018-05-16T16:44:09.381Z,81.30
2018-05-16T16:46:41.611Z,80.40
2018-05-16T16:49:13.988Z,80.50
2018-05-16T16:51:46.406Z,80.40
2018-05-16T16:54:18.758Z,79.70
2018-05-16T16:56:51.048Z,78.70
2018-05-16T16:59:23.435Z,79.50
2018-05-16T17:01:56.587Z,80.30
2018-05-16T17:04:28.878Z,80.30
2018-05-16T17:07:01.234Z,80.60
2018-05-16T17:09:33.648Z,81.00
2018-05-16T17:12:06.795Z,81.50
2018-05-16T17:14:39.225Z,81.50
2018-05-16T17:17:11.534Z,82.10
2018-05-16T17:19:43.861Z,82.20
2018-05-16T17:22:16.893Z,83.30
2018-05-16T17:24:49.328Z,83.30
2018-05-16T17:27:22.333Z,84.00
2018-05-16T17:29:54.605Z,84.00
2018-05-16T17:32:26.884Z,84.40
2018-05-16T17:34:59.321Z,84.80
2018-05-16T17:37:32.416Z,84.30
2018-05-16T17:40:04.708Z,84.20
2018-05-16T17:42:37.292Z,84.50
2018-05-16T17:45:09.700Z,84.00
2018-05-16T17:47:42.009Z,83.50
2018-05-16T17:50:15.079Z,84.80
2018-05-16T17:52:47.340Z,84.80
2018-05-16T17:55:19.720Z,85.20
2018-05-16T17:57:52.005Z,86.00
2018-05-16T18:00:25.086Z,84.80
2018-05-16T18:02:58.213Z,84.70
2018-05-16T18:05:30.548Z,84.70
2018-05-16T18:08:02.856Z,85.30
2018-05-16T18:10:35.270Z,86.00
2018-05-16T18:16:40.600Z,85.20
2018-05-16T18:19:12.853Z,84.70
2018-05-16T18:21:45.212Z,84.80
2018-05-16T18:24:18.275Z,84.80
2018-05-16T18:26:51.412Z,85.60
2018-05-16T18:29:23.794Z,85.60
2018-05-16T18:31:56.165Z,86.30
2018-05-16T18:34:28.597Z,86.10
2018-05-16T18:37:01.673Z,85.90
2018-05-16T18:39:34.030Z,85.90
2018-05-16T18:42:06.328Z,85.40
2018-05-16T18:44:38.681Z,85.30
2018-05-16T18:47:10.968Z,85.20
2018-05-16T18:49:43.257Z,85.70
2018-05-16T18:52:16.517Z,85.60
2018-05-16T18:54:49.562Z,85.40
2018-05-16T18:57:21.933Z,85.40
2018-05-16T18:59:54.311Z,85.30
2018-05-16T19:02:26.635Z,85.50
2018-05-16T19:04:59.728Z,85.60
2018-05-16T19:07:32.198Z,85.50
2018-05-16T19:10:04.522Z,86.30
2018-05-16T19:12:36.957Z,85.90
2018-05-16T19:15:10.044Z,85.60
2018-05-16T19:17:43.352Z,86.20
2018-05-16T19:20:16.454Z,85.80
2018-05-16T19:22:48.763Z,85.70
2018-05-16T19:25:21.112Z,85.60
2018-05-16T19:27:53.521Z,85.70
2018-05-16T19:30:26.180Z,86.00
2018-05-16T19:32:58.527Z,86.90
2018-05-16T19:35:30.857Z,87.30
2018-05-16T19:38:03.155Z,87.20
2018-05-16T19:40:36.311Z,87.10
2018-05-16T19:43:08.686Z,87.00
2018-05-16T19:45:41.008Z,86.30
2018-05-16T19:48:13.332Z,86.80
2018-05-16T19:50:45.895Z,86.90
2018-05-16T19:53:18.315Z,86.60
2018-05-16T19:55:50.667Z,86.30
2018-05-16T19:58:22.953Z,86.10
2018-05-16T20:00:55.294Z,86.00
2018-05-16T20:03:27.612Z,85.80
2018-05-16T20:05:59.992Z,86.40
2018-05-16T20:08:32.311Z,87.10
2018-05-16T20:11:04.670Z,87.50
2018-05-16T20:13:37.100Z,87.50
2018-05-16T20:16:09.399Z,87.50
2018-05-16T20:18:41.968Z,87.60
2018-05-16T20:21:15.102Z,87.70
2018-05-16T20:23:47.451Z,87.70
2018-05-16T20:26:19.730Z,87.60
2018-05-16T20:28:52.162Z,88.00
2018-05-16T20:31:24.546Z,88.30
2018-05-16T20:33:56.800Z,87.90
2018-05-16T20:36:29.153Z,87.50
2018-05-16T20:39:02.231Z,87.90
2018-05-16T20:41:35.384Z,88.30
2018-05-16T20:44:07.733Z,88.20
2018-05-16T20:46:40.101Z,88.90
2018-05-16T20:49:12.599Z,88.90
2018-05-16T20:51:44.963Z,89.40
2018-05-16T20:54:17.591Z,89.40
2018-05-16T20:56:50.782Z,89.50
2018-05-16T20:59:23.146Z,89.40
2018-05-16T21:01:55.454Z,89.90
2018-05-16T21:04:27.803Z,90.10
2018-05-16T21:07:00.808Z,89.80
2018-05-16T21:09:33.057Z,89.80
2018-05-16T21:12:06.210Z,90.40
2018-05-16T21:14:38.590Z,90.40
2018-05-16T21:17:10.908Z,89.90
2018-05-16T21:19:44.020Z,90.20
2018-05-16T21:22:16.365Z,90.20
2018-05-16T21:24:48.849Z,90.20
2018-05-16T21:27:21.927Z,90.60
2018-05-16T21:29:54.982Z,90.70
2018-05-16T21:32:27.274Z,90.60
2018-05-16T21:34:59.639Z,90.80
2018-05-16T21:37:32.044Z,90.90
2018-05-16T21:40:05.173Z,90.80
2018-05-16T21:42:37.472Z,90.80
2018-05-16T21:45:09.807Z,91.00
2018-05-16T21:47:42.213Z,91.30
2018-05-16T21:50:14.675Z,91.50
2018-05-16T21:52:46.985Z,91.30
2018-05-16T21:55:19.300Z,91.30
2018-05-16T21:57:51.941Z,91.40
2018-05-16T22:00:24.999Z,91.60
2018-05-16T22:02:57.347Z,91.60
2018-05-16T22:05:29.643Z,91.60
2018-05-16T22:08:02.047Z,91.60
2018-05-16T22:10:34.603Z,91.80
2018-05-16T22:13:06.924Z,91.70
2018-05-16T22:15:39.350Z,91.60
2018-05-16T22:18:12.384Z,91.90
2018-05-16T22:20:44.617Z,91.90
2018-05-16T22:23:17.731Z,91.90
2018-05-16T22:25:50.067Z,91.90
2018-05-16T22:28:22.505Z,91.90
2018-05-16T22:30:54.811Z,92.00
2018-05-16T22:33:27.192Z,91.90
2018-05-16T22:35:59.545Z,92.00
2018-05-16T22:38:31.905Z,92.00
2018-05-16T22:41:04.268Z,91.90
2018-05-16T22:43:36.552Z,92.00
2018-05-16T22:46:09.068Z,91.90
2018-05-16T22:48:42.036Z,91.90
2018-05-16T22:51:15.324Z,91.90
2018-05-16T22:53:47.755Z,92.20
2018-05-16T22:56:20.176Z,92.00
2018-05-16T22:58:52.512Z,92.00
2018-05-16T23:01:24.953Z,91.90
2018-05-16T23:03:57.283Z,91.60
2018-05-16T23:06:29.676Z,91.90
2018-05-16T23:09:02.800Z,91.50
2018-05-16T23:11:35.118Z,91.50
2018-05-16T23:14:07.630Z,91.60
2018-05-16T23:16:39.958Z,91.40
2018-05-16T23:19:12.343Z,91.50
2018-05-16T23:21:45.432Z,91.40
2018-05-16T23:24:17.707Z,91.40
2018-05-16T23:26:50.282Z,91.50
2018-05-16T23:29:22.678Z,91.50
2018-05-16T23:31:55.043Z,91.50
2018-05-16T23:34:27.393Z,91.40
2018-05-16T23:36:59.815Z,91.30
2018-05-16T23:39:32.240Z,91.50
2018-05-16T23:42:04.704Z,91.60
2018-05-16T23:44:37.007Z,91.50
2018-05-16T23:47:09.316Z,91.40
2018-05-16T23:49:41.729Z,90.90
2018-05-16T23:52:14.146Z,91.40
2018-05-16T23:54:46.569Z,91.20
2018-05-16T23:57:18.879Z,91.20
2018-05-16T23:59:51.907Z,91.10
